Time;durP1;ratioP1;P1;durP2;ratioP2;P2;SDS_P1;SDS_P2;PMS_P1;PMS_P2;Temp;Humidity;BMP_temperature;BMP_pressure;BME280_temperature;BME280_humidity;BME280_pressure;Samples;Min_cycle;Max_cycle;Signal;HPM_P1;HPM_P2
2024/02/28 00:01:22;;;;;;;27.27;17.13;;;;;;;4.75;100.00;100592.00;4967034;28;20084;-69
2024/02/28 00:03:50;;;;;;;26.80;17.00;;;;;;;4.77;100.00;100592.84;4965280;28;20134;-69
2024/02/28 00:06:18;;;;;;;28.70;17.83;;;;;;;4.76;100.00;100584.13;4970356;28;20185;-68
2024/02/28 00:08:47;;;;;;;26.52;17.27;;;;;;;4.74;100.00;100582.41;4968958;28;20157;-69
2024/02/28 00:11:15;;;;;;;28.70;17.98;;;;;;;4.74;100.00;100583.28;4968751;28;20554;-68
2024/02/28 00:13:43;;;;;;;30.13;18.15;;;;;;;4.72;100.00;100587.69;4967712;28;20131;-68
2024/02/28 00:16:11;;;;;;;29.30;18.02;;;;;;;4.69;100.00;100586.91;4972377;28;20112;-68
2024/02/28 00:18:41;;;;;;;30.20;18.70;;;;;;;4.66;100.00;100595.69;4985090;28;20070;-67
2024/02/28 00:21:09;;;;;;;26.42;17.77;;;;;;;4.67;100.00;100601.81;4987577;28;20065;-67
2024/02/28 00:23:37;;;;;;;26.80;16.95;;;;;;;4.66;100.00;100605.31;4981646;28;20053;-67
2024/02/28 00:26:05;;;;;;;27.83;17.90;;;;;;;4.65;100.00;100604.47;5000101;28;20050;-69
2024/02/28 00:28:33;;;;;;;27.35;18.35;;;;;;;4.65;100.00;100609.72;4984488;28;20050;-67
2024/02/28 00:31:01;;;;;;;27.35;17.70;;;;;;;4.59;100.00;100604.56;4982841;28;20069;-67
2024/02/28 00:33:30;;;;;;;27.02;17.98;;;;;;;4.63;100.00;100611.50;4966772;28;20133;-68
2024/02/28 00:36:02;;;;;;;27.08;17.17;;;;;;;4.59;100.00;100612.44;4979843;28;20070;-70
2024/02/28 00:38:31;;;;;;;28.90;18.30;;;;;;;4.49;100.00;100609.13;4997773;28;20061;-69
2024/02/28 00:41:01;;;;;;;29.83;18.65;;;;;;;4.49;100.00;100617.00;4956918;28;20043;-69
2024/02/28 00:43:29;;;;;;;28.45;17.95;;;;;;;4.49;100.00;100617.00;4962090;28;20113;-69
2024/02/28 00:45:59;;;;;;;29.02;18.35;;;;;;;4.43;100.00;100611.84;4965839;28;20105;-67
2024/02/28 00:48:28;;;;;;;28.08;18.20;;;;;;;4.46;100.00;100619.66;4998383;28;20062;-67
2024/02/28 00:50:57;;;;;;;28.65;17.92;;;;;;;4.46;100.00;100617.06;4971510;28;20059;-67
2024/02/28 00:53:27;;;;;;;27.65;17.90;;;;;;;4.45;100.00;100622.31;4981440;28;20067;-69
2024/02/28 00:56:03;;;;;;;29.23;17.75;;;;;;;4.43;100.00;100614.47;4978772;28;20043;-69
2024/02/28 00:58:32;;;;;;;26.38;17.00;;;;;;;4.37;100.00;100606.75;4984028;28;20148;-69
2024/02/28 01:01:04;;;;;;;30.85;19.15;;;;;;;4.38;100.00;100621.59;4965414;28;21066;-67
2024/02/28 01:03:32;;;;;;;26.70;17.77;;;;;;;4.43;100.00;100630.22;4964549;28;20575;-69
2024/02/28 01:06:04;;;;;;;26.52;17.42;;;;;;;4.34;100.00;100627.78;4969065;28;20049;-65
2024/02/28 01:08:37;;;;;;;30.38;19.17;;;;;;;4.36;100.00;100636.47;4984528;28;20047;-69
2024/02/28 01:11:07;;;;;;;30.15;18.65;;;;;;;4.34;100.00;100637.38;4953354;28;20109;-69
2024/02/28 01:13:35;;;;;;;30.02;18.05;;;;;;;4.28;100.00;100634.88;4962880;28;20067;-65
2024/02/28 01:16:03;;;;;;;31.35;18.48;;;;;;;4.29;100.00;100644.47;4967962;28;20051;-68
2024/02/28 01:18:32;;;;;;;29.55;17.95;;;;;;;4.29;100.00;100653.19;4968932;28;20054;-69
2024/02/28 01:21:00;;;;;;;31.70;18.98;;;;;;;4.26;100.00;100655.00;4968949;28;20474;-69
2024/02/28 01:23:30;;;;;;;28.95;17.80;;;;;;;4.22;100.00;100647.22;4949408;28;20058;-69
2024/02/28 01:26:03;;;;;;;31.10;19.25;;;;;;;4.11;100.00;100637.78;4965412;28;20060;-71
2024/02/28 01:28:31;;;;;;;29.50;18.42;;;;;;;4.18;100.00;100644.66;4971283;28;20056;-69
2024/02/28 01:31:00;;;;;;;31.00;18.80;;;;;;;4.18;100.00;100644.66;4983868;28;20054;-68
2024/02/28 01:33:28;;;;;;;27.65;17.63;;;;;;;4.21;100.00;100649.84;4981300;28;20039;-67
2024/02/28 01:35:57;;;;;;;28.27;18.35;;;;;;;4.13;100.00;100642.09;4960389;28;20098;-68
2024/02/28 01:38:27;;;;;;;31.15;18.83;;;;;;;4.13;100.00;100655.22;4984103;28;20082;-67
2024/02/28 01:40:56;;;;;;;27.42;17.70;;;;;;;4.11;100.00;100656.13;4951463;28;20031;-68
2024/02/28 01:43:26;;;;;;;31.40;19.02;;;;;;;4.09;100.00;100660.53;4962703;28;20511;-68
2024/02/28 01:45:54;;;;;;;31.05;18.65;;;;;;;4.01;100.00;100652.78;4964624;28;20043;-69
2024/02/28 01:48:22;;;;;;;31.73;19.58;;;;;;;4.03;100.00;100656.25;4981638;28;20054;-67
2024/02/28 01:50:52;;;;;;;30.63;19.52;;;;;;;4.03;100.00;100658.88;4969289;28;20039;-70
2024/02/28 01:53:20;;;;;;;31.80;19.73;;;;;;;4.02;100.00;100666.75;4982425;28;20042;-70
2024/02/28 01:55:51;;;;;;;29.35;18.88;;;;;;;3.94;100.00;100652.91;4975009;28;20058;-68
2024/02/28 01:58:22;;;;;;;30.38;19.17;;;;;;;4.00;100.00;100660.69;4961331;28;20043;-67
2024/02/28 02:00:55;;;;;;;31.77;19.67;;;;;;;4.06;100.00;100644.88;4955770;28;20054;-68
2024/02/28 02:03:24;;;;;;;30.50;19.92;;;;;;;4.02;100.00;100638.81;4988078;28;20102;-68
2024/02/28 02:05:52;;;;;;;28.52;18.73;;;;;;;3.97;100.00;100645.84;4975090;28;20095;-72
2024/02/28 02:08:21;;;;;;;31.45;19.52;;;;;;;3.93;100.00;100653.81;4970941;28;20058;-73
2024/02/28 02:10:49;;;;;;;31.15;19.35;;;;;;;3.94;100.00;100658.13;4952582;28;20060;-67
2024/02/28 02:13:17;;;;;;;32.05;19.48;;;;;;;3.95;100.00;100654.63;4971769;28;20074;-69
2024/02/28 02:15:45;;;;;;;32.00;20.08;;;;;;;3.91;100.00;100653.84;4968445;28;20049;-68
2024/02/28 02:18:17;;;;;;;30.25;18.85;;;;;;;3.84;100.00;100654.81;4976993;28;20133;-69
2024/02/28 02:20:50;;;;;;;33.05;20.10;;;;;;;3.81;100.00;100657.47;4972413;28;20063;-68
2024/02/28 02:23:20;;;;;;;32.20;19.42;;;;;;;3.83;100.00;100659.19;4984361;28;20050;-67
2024/02/28 02:25:49;;;;;;;34.20;20.63;;;;;;;3.77;100.00;100648.81;4980981;28;20050;-68
2024/02/28 02:28:17;;;;;;;31.77;19.38;;;;;;;3.78;100.00;100663.63;4984282;28;20050;-68
2024/02/28 02:30:46;;;;;;;32.58;19.83;;;;;;;3.81;100.00;100666.19;4983702;28;20474;-67
2024/02/28 02:33:14;;;;;;;33.40;20.08;;;;;;;3.78;100.00;100666.22;4983608;28;20074;-67
2024/02/28 02:35:43;;;;;;;30.67;19.90;;;;;;;3.73;100.00;100668.06;4982788;28;20070;-65
2024/02/28 02:38:10;;;;;;;34.55;20.27;;;;;;;3.70;100.00;100662.00;4972570;28;20049;-69
2024/02/28 02:40:40;;;;;;;32.67;19.90;;;;;;;3.63;100.00;100666.47;4968028;28;20054;-69
2024/02/28 02:43:08;;;;;;;32.35;19.58;;;;;;;3.62;100.00;100672.59;4982447;28;20061;-65
2024/02/28 02:45:36;;;;;;;33.08;19.80;;;;;;;3.62;100.00;100675.19;4962598;28;20074;-68
2024/02/28 02:48:04;;;;;;;34.35;20.70;;;;;;;3.63;100.00;100673.44;4983477;28;20081;-69
2024/02/28 02:50:33;;;;;;;32.72;20.00;;;;;;;3.61;100.00;100672.63;4967979;28;20058;-69
2024/02/28 02:53:01;;;;;;;33.72;20.42;;;;;;;3.61;100.00;100683.09;4967999;28;20031;-70
2024/02/28 02:55:29;;;;;;;33.63;20.52;;;;;;;3.62;100.00;100680.44;4963734;28;20515;-67
2024/02/28 02:58:00;;;;;;;33.50;19.92;;;;;;;3.62;100.00;100675.19;4969818;28;20133;-67
2024/02/28 03:00:28;;;;;;;34.50;20.67;;;;;;;3.62;100.00;100685.69;4983250;28;20053;-69
2024/02/28 03:02:55;;;;;;;34.25;20.52;;;;;;;3.62;100.00;100680.44;4981527;28;20050;-68
2024/02/28 03:05:23;;;;;;;33.10;20.25;;;;;;;3.60;100.00;100677.00;4952590;28;20055;-69
2024/02/28 03:07:51;;;;;;;34.38;20.60;;;;;;;3.55;100.00;100672.72;4948603;28;20043;-69
2024/02/28 03:10:19;;;;;;;33.22;20.60;;;;;;;3.53;100.00;100668.34;4959049;28;20051;-69
2024/02/28 03:12:47;;;;;;;32.15;20.30;;;;;;;3.59;100.00;100679.63;4984247;28;20038;-68
2024/02/28 03:15:16;;;;;;;34.80;20.60;;;;;;;3.58;100.00;100677.91;4977355;28;20051;-67
2024/02/28 03:17:45;;;;;;;33.85;20.27;;;;;;;3.57;100.00;100684.03;4962572;28;20054;-68
2024/02/28 03:20:14;;;;;;;34.45;20.30;;;;;;;3.55;100.00;100680.56;4963005;28;20058;-67
2024/02/28 03:22:41;;;;;;;31.35;20.27;;;;;;;3.51;100.00;100682.34;4980298;28;20515;-70
2024/02/28 03:25:10;;;;;;;37.60;21.50;;;;;;;3.48;100.00;100687.63;4954137;28;20135;-68
2024/02/28 03:27:38;;;;;;;37.33;21.77;;;;;;;3.48;100.00;100696.34;4960527;28;20051;-67
2024/02/28 03:30:07;;;;;;;37.50;21.92;;;;;;;3.46;100.00;100705.13;4948530;28;20051;-67
2024/02/28 03:32:37;;;;;;;36.30;21.33;;;;;;;3.42;100.00;100704.28;4950491;28;20423;-67
2024/02/28 03:35:08;;;;;;;37.55;21.77;;;;;;;3.40;100.00;100706.06;4944103;28;20047;-69
2024/02/28 03:37:37;;;;;;;36.90;21.15;;;;;;;3.38;100.00;100718.31;4957385;28;20586;-70
2024/02/28 03:40:05;;;;;;;36.38;21.00;;;;;;;3.35;100.00;100720.94;4969363;28;20446;-69
2024/02/28 03:42:34;;;;;;;35.25;20.92;;;;;;;3.34;100.00;100721.84;4985650;28;20035;-69
2024/02/28 03:45:04;;;;;;;35.75;21.00;;;;;;;3.33;100.00;100724.47;4959958;28;20349;-68
2024/02/28 03:47:32;;;;;;;36.22;21.52;;;;;;;3.31;100.00;100723.63;4988142;28;20053;-69
2024/02/28 03:50:03;;;;;;;39.47;21.52;;;;;;;3.22;100.00;100716.75;4968248;28;20665;-69
2024/02/28 03:52:31;;;;;;;;;;;;;;;3.26;100.00;100720.22;4970623;28;20043;-67
2024/02/28 03:55:00;;;;;;;37.35;21.30;;;;;;;3.21;100.00;100719.38;4962817;28;19930;-67
2024/02/28 03:57:29;;;;;;;38.20;20.98;;;;;;;3.15;100.00;100712.47;4968813;28;20069;-67
2024/02/28 03:59:57;;;;;;;37.15;21.73;;;;;;;3.13;100.00;100722.09;4974042;28;20133;-66
2024/02/28 04:02:25;;;;;;;37.33;21.77;;;;;;;3.14;100.00;100731.69;4969882;28;20128;-67
2024/02/28 04:04:53;;;;;;;35.22;21.42;;;;;;;3.14;100.00;100734.31;4970426;28;20600;-69
2024/02/28 04:07:26;;;;;;;39.75;23.48;;;;;;;3.07;100.00;100733.50;4968105;28;20549;-69
2024/02/28 04:09:57;;;;;;;39.28;22.30;;;;;;;3.04;100.00;100745.75;4968846;28;20051;-67
2024/02/28 04:12:25;;;;;;;37.40;22.33;;;;;;;2.98;100.00;100748.44;4971322;28;20070;-67
2024/02/28 04:14:55;;;;;;;37.38;22.83;;;;;;;2.94;100.00;100757.19;4963846;28;20054;-66
2024/02/28 04:17:24;;;;;;;37.20;21.75;;;;;;;2.90;100.00;100756.34;4970818;28;20049;-68
2024/02/28 04:19:53;;;;;;;38.20;22.35;;;;;;;2.92;100.00;100757.22;4966935;28;20046;-65
2024/02/28 04:22:24;;;;;;;41.17;23.80;;;;;;;2.94;100.00;100758.06;4968090;28;20523;-68
2024/02/28 04:24:55;;;;;;;42.97;22.30;;;;;;;2.95;100.00;100748.47;4982363;28;20053;-69
2024/02/28 04:27:24;;;;;;;38.03;22.98;;;;;;;2.96;100.00;100758.91;4969972;28;20042;-68
2024/02/28 04:29:51;;;;;;;40.88;23.40;;;;;;;2.83;100.00;100736.38;4968272;28;20113;-67
2024/02/28 04:32:21;;;;;;;43.20;24.20;;;;;;;2.97;100.00;100763.28;4984366;28;20161;-67
2024/02/28 04:34:50;;;;;;;41.83;23.42;;;;;;;2.92;100.00;100766.81;4977960;28;20578;-64
2024/02/28 04:37:19;;;;;;;39.78;22.85;;;;;;;2.87;100.00;100764.22;4961992;28;20043;-69
2024/02/28 04:39:51;;;;;;;40.08;22.98;;;;;;;2.86;100.00;100770.34;4933266;28;20072;-67
2024/02/28 04:42:19;;;;;;;43.20;23.70;;;;;;;2.83;100.00;100771.22;4951605;28;20051;-69
2024/02/28 04:44:48;;;;;;;43.22;23.83;;;;;;;2.80;100.00;100780.88;4940359;28;20055;-66
2024/02/28 04:47:16;;;;;;;41.95;24.27;;;;;;;2.70;100.00;100780.06;4947716;28;20540;-66
2024/02/28 04:49:48;;;;;;;42.53;23.83;;;;;;;2.71;100.00;100791.41;4962781;28;20550;-67
2024/02/28 04:52:18;;;;;;;56.00;23.50;;;;;;;2.66;100.00;100788.84;4960285;28;20046;-69
2024/02/28 04:54:54;;;;;;;43.30;24.15;;;;;;;2.65;100.00;100796.69;4950675;28;20054;-67
2024/02/28 04:57:22;;;;;;;43.28;23.40;;;;;;;2.56;100.00;100791.53;4947588;28;20075;-69
2024/02/28 04:59:50;;;;;;;45.47;24.90;;;;;;;2.54;100.00;100807.22;4951736;28;20074;-69
2024/02/28 05:02:18;;;;;;;45.10;24.60;;;;;;;2.51;100.00;100817.72;4948952;28;20054;-70
2024/02/28 05:04:46;;;;;;;46.00;24.83;;;;;;;2.46;100.00;100817.75;4942954;28;20066;-68
2024/02/28 05:07:15;;;;;;;43.85;23.90;;;;;;;2.45;100.00;100821.25;4943682;28;20285;-67
2024/02/28 05:09:44;;;;;;;46.10;25.23;;;;;;;2.42;100.00;100816.03;4946082;28;20447;-67
2024/02/28 05:12:15;;;;;;;50.00;25.63;;;;;;;2.44;100.00;100819.50;4964925;28;20527;-65
2024/02/28 05:14:43;;;;;;;45.33;24.52;;;;;;;2.43;100.00;100825.59;4945648;28;20175;-65
2024/02/28 05:17:12;;;;;;;45.25;23.60;;;;;;;2.37;100.00;100820.41;4957710;28;20515;-67
2024/02/28 05:19:40;;;;;;;46.33;24.92;;;;;;;2.39;100.00;100821.28;4948813;28;20047;-69
2024/02/28 05:22:09;;;;;;;47.92;25.33;;;;;;;2.28;100.00;100809.16;4956113;28;20537;-69
2024/02/28 05:24:37;;;;;;;48.63;26.05;;;;;;;2.33;100.00;100823.06;4929008;28;20083;-68
2024/02/28 05:27:07;;;;;;;50.47;26.25;;;;;;;2.32;100.00;100835.28;4947287;28;20049;-68
2024/02/28 05:29:36;;;;;;;50.60;25.63;;;;;;;2.29;100.00;100831.81;4947270;28;20042;-68
2024/02/28 05:32:05;;;;;;;48.85;25.88;;;;;;;2.29;100.00;100830.06;4973964;28;20057;-69
2024/02/28 05:34:33;;;;;;;45.92;24.63;;;;;;;2.26;100.00;100830.06;4984416;28;20072;-67
2024/02/28 05:37:01;;;;;;;49.70;25.85;;;;;;;2.25;100.00;100830.94;4978719;28;20038;-68
2024/02/28 05:39:30;;;;;;;46.65;25.30;;;;;;;2.23;100.00;100832.69;4969144;28;20133;-68
2024/02/28 05:41:58;;;;;;;46.22;25.13;;;;;;;2.15;100.00;100844.09;4968452;28;20055;-65
2024/02/28 05:44:26;;;;;;;48.92;25.77;;;;;;;2.18;100.00;100847.56;5004227;28;20069;-65
2024/02/28 05:46:57;;;;;;;49.85;25.75;;;;;;;2.15;100.00;100847.56;4981643;28;20053;-67
2024/02/28 05:49:26;;;;;;;47.58;24.38;;;;;;;2.17;100.00;100842.34;4967081;28;20102;-66
2024/02/28 05:51:54;;;;;;;51.67;27.33;;;;;;;2.13;100.00;100846.69;4963949;28;20042;-70
2024/02/28 05:54:22;;;;;;;51.83;26.40;;;;;;;2.08;100.00;100848.47;4966992;28;20469;-67
2024/02/28 05:56:56;;;;;;;44.45;25.13;;;;;;;2.05;100.00;100849.34;4963363;28;20039;-70
2024/02/28 05:59:25;;;;;;;47.10;25.38;;;;;;;1.98;100.00;100842.44;4962100;28;20051;-68
2024/02/28 06:01:53;;;;;;;53.97;28.67;;;;;;;2.01;100.00;100859.84;4970389;28;20035;-69
2024/02/28 06:04:24;;;;;;;49.55;26.95;;;;;;;1.99;100.00;100858.97;4979698;28;20452;-68
2024/02/28 06:06:52;;;;;;;51.35;25.75;;;;;;;1.98;100.00;100858.09;4983304;28;20055;-68
2024/02/28 06:09:20;;;;;;;52.30;26.90;;;;;;;1.97;100.00;100865.94;4968537;28;20413;-70
2024/02/28 06:11:48;;;;;;;53.03;26.73;;;;;;;1.98;100.00;100873.78;4970993;28;20058;-68
2024/02/28 06:14:17;;;;;;;49.25;26.30;;;;;;;1.95;100.00;100871.16;4963779;28;20054;-68
2024/02/28 06:16:47;;;;;;;50.28;26.70;;;;;;;1.94;100.00;100876.41;4963003;28;20050;-67
2024/02/28 06:19:15;;;;;;;48.40;25.40;;;;;;;2.00;100.00;100884.22;4966906;28;20061;-67
2024/02/28 06:21:45;;;;;;;57.35;27.50;;;;;;;1.97;100.00;100874.66;4968884;28;20480;-69
2024/02/28 06:24:13;;;;;;;47.15;25.95;;;;;;;1.99;100.00;100875.50;4965470;28;20130;-69
2024/02/28 06:26:43;;;;;;;51.85;27.42;;;;;;;2.00;100.00;100885.09;4959080;28;20081;-69
2024/02/28 06:29:15;;;;;;;53.38;27.38;;;;;;;1.96;100.00;100887.72;4923325;28;20077;-69
2024/02/28 06:31:43;;;;;;;53.70;28.10;;;;;;;1.93;100.00;100885.97;4967036;28;20075;-68
2024/02/28 06:34:11;;;;;;;53.33;27.52;;;;;;;2.01;100.00;100901.63;4961570;28;20034;-69
2024/02/28 06:36:41;;;;;;;52.67;27.90;;;;;;;1.98;100.00;100902.50;4973754;28;20050;-69
2024/02/28 06:39:11;;;;;;;53.97;27.60;;;;;;;2.05;100.00;100911.16;4970865;28;20046;-69
2024/02/28 06:41:39;;;;;;;52.60;27.80;;;;;;;2.07;100.00;100896.34;4967212;28;20581;-69
2024/02/28 06:44:08;;;;;;;55.13;27.67;;;;;;;2.23;100.00;100910.22;4966596;28;20101;-67
2024/02/28 06:46:36;;;;;;;55.53;28.58;;;;;;;2.31;100.00;100921.53;4962562;28;20085;-68
2024/02/28 06:49:04;;;;;;;52.00;27.52;;;;;;;2.30;100.00;100920.66;4974825;28;20061;-68
2024/02/28 06:51:31;;;;;;;56.72;28.50;;;;;;;2.36;100.00;100910.16;4970332;28;20038;-65
2024/02/28 06:53:59;;;;;;;51.17;28.27;;;;;;;2.41;100.00;100918.84;4966621;28;20074;-65
2024/02/28 06:56:30;;;;;;;53.42;27.83;;;;;;;2.37;100.00;100922.34;4963123;28;20046;-68
2024/02/28 06:58:58;;;;;;;53.53;28.65;;;;;;;2.33;100.00;100919.78;4978953;28;20051;-65
2024/02/28 07:01:27;;;;;;;54.33;28.92;;;;;;;2.38;100.00;100925.81;4972029;28;20034;-68
2024/02/28 07:03:57;;;;;;;55.40;27.85;;;;;;;2.40;100.00;100937.13;4986068;28;20042;-67
2024/02/28 07:06:25;;;;;;;51.25;27.52;;;;;;;2.47;100.00;100939.72;4999028;28;20063;-68
2024/02/28 07:08:55;;;;;;;56.88;29.05;;;;;;;2.45;100.00;100944.09;4978334;28;20118;-67
2024/02/28 07:11:26;;;;;;;54.78;28.77;;;;;;;2.37;100.00;100938.00;4996617;28;20046;-70
2024/02/28 07:14:02;;;;;;;55.55;27.85;;;;;;;2.34;100.00;100943.28;4967634;28;20051;-69
2024/02/28 07:16:30;;;;;;;55.95;28.45;;;;;;;2.37;100.00;100953.69;4957088;28;20076;-68
2024/02/28 07:18:58;;;;;;;53.60;28.40;;;;;;;2.40;100.00;100958.91;4978323;28;20082;-65
2024/02/28 07:21:27;;;;;;;57.85;29.20;;;;;;;2.52;100.00;100962.38;4962086;28;20049;-67
2024/02/28 07:23:57;;;;;;;52.65;29.45;;;;;;;2.57;100.00;100968.41;4977744;28;20050;-65
2024/02/28 07:26:25;;;;;;;52.97;27.63;;;;;;;2.48;100.00;100956.28;4976010;28;21084;-67
2024/02/28 07:28:57;;;;;;;53.95;29.05;;;;;;;2.53;100.00;100969.31;4977590;28;20051;-70
2024/02/28 07:31:26;;;;;;;49.47;26.65;;;;;;;2.56;100.00;100962.31;4966071;28;20058;-67
2024/02/28 07:33:55;;;;;;;53.00;27.35;;;;;;;2.59;100.00;100964.06;4979544;28;20172;-70
2024/02/28 07:36:22;;;;;;;53.10;27.25;;;;;;;2.61;100.00;100972.78;4960150;28;20085;-67
2024/02/28 07:38:52;;;;;;;51.00;26.55;;;;;;;2.56;100.00;100974.53;4964923;28;20042;-67
2024/02/28 07:41:20;;;;;;;52.15;27.67;;;;;;;2.57;100.00;100963.19;4978117;28;20051;-66
2024/02/28 07:43:48;;;;;;;51.17;26.85;;;;;;;2.57;100.00;100960.56;4977699;28;20050;-69
2024/02/28 07:46:19;;;;;;;50.97;27.85;;;;;;;2.49;100.00;100958.03;4959233;28;20050;-66
2024/02/28 07:48:51;;;;;;;52.15;26.35;;;;;;;2.55;100.00;100962.31;4966278;28;20633;-68
2024/02/28 07:51:19;;;;;;;48.83;26.88;;;;;;;2.51;100.00;100965.84;4966919;28;20081;-68
2024/02/28 07:53:49;;;;;;;47.93;26.27;;;;;;;2.45;100.00;100966.75;4967050;28;20062;-70
2024/02/28 07:56:18;;;;;;;50.85;26.70;;;;;;;2.43;100.00;100966.75;4963422;28;20108;-69
2024/02/28 07:58:48;;;;;;;;;;;;;;;2.44;100.00;100968.50;4978722;28;20051;-69
2024/02/28 08:01:16;;;;;;;48.17;25.95;;;;;;;2.39;100.00;100972.88;4967279;28;19925;-68
2024/02/28 08:03:46;;;;;;;53.70;27.45;;;;;;;2.44;100.00;100980.69;4966712;28;20043;-65
2024/02/28 08:06:14;;;;;;;51.75;27.02;;;;;;;2.47;100.00;100970.22;4963339;28;20046;-68
2024/02/28 08:08:46;;;;;;;51.90;26.92;;;;;;;2.46;100.00;100990.28;4965256;28;20526;-69
2024/02/28 08:11:14;;;;;;;47.28;24.70;;;;;;;2.46;100.00;100979.81;4964100;28;20077;-70
2024/02/28 08:13:43;;;;;;;51.47;26.40;;;;;;;2.54;100.00;100976.28;4948575;28;20043;-67
2024/02/28 08:16:11;;;;;;;52.72;25.25;;;;;;;2.49;100.00;100958.03;4960370;28;20055;-67
2024/02/28 08:18:41;;;;;;;51.50;26.02;;;;;;;2.66;100.00;100979.72;4969713;28;20412;-67
2024/02/28 08:21:13;;;;;;;58.58;26.85;;;;;;;2.77;100.00;100984.88;4961884;28;20050;-68
2024/02/28 08:23:41;;;;;;;49.13;26.30;;;;;;;2.60;100.00;100987.59;4967500;28;20054;-67
2024/02/28 08:26:10;;;;;;;51.88;26.40;;;;;;;2.50;100.00;100985.03;4969750;28;20165;-69
2024/02/28 08:28:40;;;;;;;47.75;25.50;;;;;;;2.30;100.00;100978.13;5004105;28;20110;-66
2024/02/28 08:31:09;;;;;;;55.78;25.55;;;;;;;2.37;100.00;100986.81;5007574;28;20047;-66
2024/02/28 08:33:37;;;;;;;51.72;25.63;;;;;;;2.42;100.00;101005.97;4988986;28;20050;-66
2024/02/28 08:36:06;;;;;;;51.35;26.13;;;;;;;2.46;100.00;100994.63;4972454;28;20048;-68
2024/02/28 08:38:38;;;;;;;53.83;27.23;;;;;;;2.48;100.00;101000.72;4977063;28;20169;-68
2024/02/28 08:41:08;;;;;;;49.17;25.35;;;;;;;2.52;100.00;100997.19;4960298;28;20058;-69
2024/02/28 08:43:40;;;;;;;52.67;26.35;;;;;;;2.57;100.00;100987.59;4976214;28;20062;-69
2024/02/28 08:46:09;;;;;;;49.97;25.67;;;;;;;2.64;100.00;100988.44;4983629;28;20055;-69
2024/02/28 08:48:37;;;;;;;44.92;24.50;;;;;;;2.75;100.00;100992.72;4969150;28;20053;-67
2024/02/28 08:51:07;;;;;;;47.33;23.40;;;;;;;2.74;100.00;101001.44;4986471;28;20074;-66
2024/02/28 08:53:36;;;;;;;44.88;23.35;;;;;;;2.85;100.00;100998.75;5004478;28;20071;-69
2024/02/28 08:56:08;;;;;;;41.63;22.67;;;;;;;3.03;100.00;101003.88;4983554;28;20055;-66
2024/02/28 08:58:37;;;;;;;42.63;22.90;;;;;;;3.15;100.00;101000.31;4978006;28;20357;-66
2024/02/28 09:01:06;;;;;;;46.05;24.80;;;;;;;3.24;100.00;101004.63;4985233;28;20058;-69
2024/02/28 09:03:34;;;;;;;41.33;22.73;;;;;;;3.25;100.00;101004.63;4966640;28;20062;-69
2024/02/28 09:06:02;;;;;;;36.38;20.58;;;;;;;3.18;100.00;101022.09;4963357;28;20050;-70
2024/02/28 09:08:30;;;;;;;41.03;22.27;;;;;;;3.13;100.00;101020.41;4976649;28;20051;-70
2024/02/28 09:11:00;;;;;;;37.53;20.50;;;;;;;3.18;100.00;101029.09;4963325;28;20164;-66
2024/02/28 09:13:28;;;;;;;39.28;22.20;;;;;;;3.11;100.00;101002.09;4968335;28;20138;-67
2024/02/28 09:15:58;;;;;;;39.25;21.27;;;;;;;3.25;100.00;101022.94;4964535;28;20050;-67
2024/02/28 09:18:26;;;;;;;37.92;21.55;;;;;;;3.29;100.00;101029.03;4972256;28;20416;-69
2024/02/28 09:20:55;;;;;;;39.50;21.73;;;;;;;3.23;100.00;101037.78;4966196;28;20075;-69
2024/02/28 09:23:23;;;;;;;41.28;22.45;;;;;;;3.22;100.00;101033.44;4979457;28;20050;-69
2024/02/28 09:25:51;;;;;;;40.92;22.17;;;;;;;3.24;100.00;101021.19;4967799;28;20047;-69
2024/02/28 09:28:21;;;;;;;39.92;22.75;;;;;;;3.56;100.00;101030.56;4969326;28;20070;-70
2024/02/28 09:30:51;;;;;;;40.92;22.15;;;;;;;3.78;100.00;101029.47;4979970;28;20054;-68
2024/02/28 09:33:21;;;;;;;37.95;22.08;;;;;;;3.81;100.00;101032.94;4984194;28;20050;-69
2024/02/28 09:35:49;;;;;;;43.83;22.98;;;;;;;3.97;100.00;101038.91;4975949;28;20161;-69
2024/02/28 09:38:17;;;;;;;38.70;21.45;;;;;;;4.07;100.00;101030.09;4977451;28;20054;-69
2024/02/28 09:40:48;;;;;;;43.53;22.85;;;;;;;4.18;100.00;101043.94;4966699;28;20047;-69
2024/02/28 09:43:26;;;;;;;40.38;23.05;;;;;;;4.10;100.00;101045.75;4938265;28;20050;-66
2024/02/28 09:46:01;;;;;;;40.67;22.90;;;;;;;3.93;100.00;101033.72;4969121;28;20087;-70
2024/02/28 09:48:30;;;;;;;37.17;21.65;;;;;;;3.89;100.00;101038.13;4974348;28;20062;-65
2024/02/28 09:50:59;;;;;;;40.70;22.42;;;;;;;3.91;100.00;101036.38;4966583;28;20054;-69
2024/02/28 09:53:27;;;;;;;39.80;22.38;;;;;;;3.96;100.00;101031.91;4965719;28;20115;-70
2024/02/28 09:55:55;;;;;;;42.72;23.15;;;;;;;4.06;100.00;101038.81;4965377;28;20046;-69
2024/02/28 09:58:28;;;;;;;42.42;23.85;;;;;;;4.15;100.00;101036.09;4962532;28;20047;-70
2024/02/28 10:01:03;;;;;;;42.72;23.63;;;;;;;4.21;100.00;101040.41;4964357;28;20049;-71
2024/02/28 10:03:32;;;;;;;40.55;22.70;;;;;;;4.30;100.00;101044.69;4965225;28;20093;-69
2024/02/28 10:06:00;;;;;;;43.58;24.15;;;;;;;4.20;100.00;101022.94;4965507;28;20047;-70
2024/02/28 10:08:34;;;;;;;44.63;23.90;;;;;;;4.09;100.00;101036.16;4966815;28;20046;-68
2024/02/28 10:11:04;;;;;;;41.20;23.00;;;;;;;4.06;100.00;101032.72;4950919;28;20535;-69
2024/02/28 10:13:34;;;;;;;45.17;23.40;;;;;;;4.12;100.00;101037.88;4967415;28;20057;-67
2024/02/28 10:16:03;;;;;;;46.17;25.15;;;;;;;4.24;100.00;101037.78;4975674;28;20058;-67
2024/02/28 10:18:31;;;;;;;44.38;23.63;;;;;;;4.42;100.00;101048.03;4974692;28;20158;-68
2024/02/28 10:20:59;;;;;;;51.08;25.67;;;;;;;4.51;100.00;101057.56;4982149;28;20595;-66
2024/02/28 10:23:27;;;;;;;46.28;25.20;;;;;;;4.51;100.00;101057.56;4986120;28;20051;-67
2024/02/28 10:26:01;;;;;;;45.22;25.00;;;;;;;4.82;100.00;101063.31;4985822;28;20093;-68
2024/02/28 10:28:30;;;;;;;49.47;25.42;;;;;;;5.25;100.00;101060.94;4963478;28;20046;-69
2024/02/28 10:31:01;;;;;;;47.22;25.17;;;;;;;5.73;100.00;101056.69;4969962;28;20043;-69
2024/02/28 10:33:41;;;;;;;45.25;25.02;;;;;;;6.03;100.00;101054.47;4970033;28;20141;-65
2024/02/28 10:36:11;;;;;;;44.53;23.80;;;;;;;6.23;100.00;101057.59;4971560;28;20063;-68
2024/02/28 10:38:39;;;;;;;45.67;24.80;;;;;;;6.31;100.00;101060.94;4979629;28;20049;-67
2024/02/28 10:41:16;;;;;;;45.28;24.92;;;;;;;6.45;100.00;101056.31;5005325;28;20396;-67
2024/02/28 10:43:45;;;;;;;46.72;26.42;;;;;;;6.54;100.00;101060.50;4999377;28;20046;-69
2024/02/28 10:46:17;;;;;;;43.63;25.23;;;;;;;6.53;100.00;101064.91;4972688;28;20121;-69
2024/02/28 10:49:03;;;;;;;48.33;26.30;;;;;;;6.53;100.00;101066.66;4978767;28;20042;-68
2024/02/28 10:51:35;;;;;;;46.63;26.50;;;;;;;6.53;100.00;101062.28;4965791;28;20047;-71
2024/02/28 10:54:11;;;;;;;46.70;25.42;;;;;;;6.61;100.00;101060.34;4966103;28;20756;-70
2024/02/28 10:56:42;;;;;;;44.60;25.23;;;;;;;6.49;100.00;101054.47;4965562;28;20047;-69
2024/02/28 10:59:13;;;;;;;43.22;25.55;;;;;;;6.54;100.00;101049.97;4969317;28;20046;-68
2024/02/28 11:01:45;;;;;;;45.22;25.65;;;;;;;6.57;100.00;101056.06;4970319;28;20070;-71
2024/02/28 11:04:17;;;;;;;45.65;25.02;;;;;;;6.61;100.00;101052.44;4966244;28;20054;-71
2024/02/28 11:06:52;;;;;;;44.95;25.88;;;;;;;6.73;100.00;101058.38;4969920;28;20046;-71
2024/02/28 11:09:23;;;;;;;42.85;24.30;;;;;;;6.61;100.00;101059.50;4962899;28;20050;-68
2024/02/28 11:11:51;;;;;;;44.13;24.60;;;;;;;6.63;100.00;101062.94;4962797;28;20101;-67
2024/02/28 11:14:22;;;;;;;41.05;24.10;;;;;;;6.63;100.00;101063.81;4964498;28;20042;-69
2024/02/28 11:17:00;;;;;;;43.20;25.00;;;;;;;6.76;100.00;101066.22;4960171;28;20062;-65
2024/02/28 11:19:32;;;;;;;42.50;24.88;;;;;;;6.81;100.00;101066.97;4965324;28;20042;-67